Time;durP1;ratioP1;P1;durP2;ratioP2;P2;SDS_P1;SDS_P2;PMS_P1;PMS_P2;Temp;Humidity;BMP_temperature;BMP_pressure;BME280_temperature;BME280_humidity;BME280_pressure;Samples;Min_cycle;Max_cycle;Signal;HPM_P1;HPM_P2
2022/12/19 00:01:01;;;;;;;;;;;;;;;21.13;25.62;99745.22;5096229;28;1906;-77
2022/12/19 00:03:27;;;;;;;;;;;;;;;21.27;25.14;99746.09;5095698;28;954;-77
2022/12/19 00:05:52;;;;;;;;;;;;;;;21.16;25.32;99750.09;5096249;28;866;-77
2022/12/19 00:08:18;;;;;;;;;;;;;;;20.96;25.62;99758.13;5094708;28;929;-77
2022/12/19 00:10:43;;;;;;;;;;;;;;;20.86;25.54;99753.22;5094429;28;1243;-77
2022/12/19 00:13:09;;;;;;;;;;;;;;;21.16;25.38;99750.91;5099830;28;1414;-77
2022/12/19 00:15:34;;;;;;;;;;;;;;;21.24;25.06;99763.91;5098258;28;954;-77
2022/12/19 00:18:00;;;;;;;;;;;;;;;21.30;25.19;99762.31;5098499;28;932;-77
2022/12/19 00:20:25;;;;;;;;;;;;;;;21.13;25.21;99771.50;5099537;28;1905;-77
2022/12/19 00:22:51;;;;;;;;;;;;;;;20.96;25.42;99775.09;5099971;28;916;-77
2022/12/19 00:25:16;;;;;;;;;;;;;;;20.80;25.68;99773.41;5099533;28;945;-77
2022/12/19 00:27:41;;;;;;;;;;;;;;;21.15;25.51;99788.94;5100314;28;940;-77
2022/12/19 00:30:07;;;;;;;;;;;;;;;21.25;25.07;99782.50;5098009;28;954;-77
2022/12/19 00:32:33;;;;;;;;;;;;;;;21.47;24.99;99782.56;5098473;28;1037;-77
2022/12/19 00:34:58;;;;;;;;;;;;;;;21.07;25.23;99787.28;5098862;28;1096;-77
2022/12/19 00:37:23;;;;;;;;;;;;;;;20.95;25.70;99790.47;5099583;28;853;-77
2022/12/19 00:39:49;;;;;;;;;;;;;;;20.84;25.63;99792.44;5097982;28;1970;-76
2022/12/19 00:42:15;;;;;;;;;;;;;;;21.18;25.04;99781.66;5098296;28;1263;-77
2022/12/19 00:44:40;;;;;;;;;;;;;;;21.10;25.51;99785.69;5099274;28;1051;-77
2022/12/19 00:47:05;;;;;;;;;;;;;;;21.22;24.94;99776.81;5097950;28;1153;-77
2022/12/19 00:49:31;;;;;;;;;;;;;;;20.90;25.46;99782.34;5098101;28;1494;-77
2022/12/19 00:51:58;;;;;;;;;;;;;;;20.80;25.51;99784.72;5063469;28;916;-77
2022/12/19 00:54:24;;;;;;;;;;;;;;;21.26;24.92;99772.78;5099259;28;889;-77
2022/12/19 00:56:49;;;;;;;;;;;;;;;21.62;24.65;99775.72;5079617;28;1249;-77
2022/12/19 00:59:15;;;;;;;;;;;;;;;21.18;25.00;99765.47;5099180;28;893;-77
2022/12/19 01:01:40;;;;;;;;;;;;;;;20.85;25.46;99774.25;5097574;28;1902;-77
2022/12/19 01:04:06;;;;;;;;;;;;;;;20.66;25.62;99764.84;5098682;28;880;-77
2022/12/19 01:06:32;;;;;;;;;;;;;;;21.22;24.99;99773.97;5097957;28;1229;-77
2022/12/19 01:08:58;;;;;;;;;;;;;;;21.28;24.87;99773.19;5098488;28;996;-77
2022/12/19 01:14:07;;;;;;;;;;;;;;;21.26;24.84;99767.13;5098226;28;967;-77
2022/12/19 01:16:34;;;;;;;;;;;;;;;20.96;25.02;99769.44;5080700;28;1033;-77
2022/12/19 01:18:59;;;;;;;;;;;;;;;21.02;25.07;99767.84;5098647;28;911;-77
2022/12/19 01:21:25;;;;;;;;;;;;;;;21.16;25.03;99767.91;5098900;28;1909;-77
2022/12/19 01:23:51;;;;;;;;;;;;;;;21.25;24.90;99765.50;5061984;28;919;-77
2022/12/19 01:26:17;;;;;;;;;;;;;;;21.14;24.65;99763.84;5097430;28;1133;-77
2022/12/19 01:28:42;;;;;;;;;;;;;;;20.99;25.04;99763.00;5096911;28;988;-77
2022/12/19 01:31:08;;;;;;;;;;;;;;;20.89;25.30;99769.41;5080466;28;1082;-77
2022/12/19 01:33:33;;;;;;;;;;;;;;;21.14;25.02;99767.50;5098158;28;916;-77
2022/12/19 01:36:06;;;;;;;;;;;;;;;21.14;24.96;99761.84;5098573;28;980;-77
2022/12/19 01:38:32;;;;;;;;;;;;;;;21.17;24.69;99766.69;5096517;28;1361;-77
2022/12/19 01:40:59;;;;;;;;;;;;;;;20.91;25.17;99772.66;5097894;28;1910;-77
2022/12/19 01:43:26;;;;;;;;;;;;;;;20.95;24.90;99767.81;5097564;28;903;-77
2022/12/19 01:45:59;;;;;;;;;;;;;;;21.01;24.86;99778.34;5096848;28;945;-77
2022/12/19 01:48:30;;;;;;;;;;;;;;;21.18;24.50;99768.28;5096699;28;877;-77
2022/12/19 01:51:00;;;;;;;;;;;;;;;21.31;24.43;99763.94;5097985;28;971;-77
2022/12/19 01:53:32;;;;;;;;;;;;;;;21.06;24.71;99769.47;5079569;28;1153;-77
2022/12/19 01:55:57;;;;;;;;;;;;;;;20.80;24.88;99784.72;5096793;28;1034;-77
2022/12/19 01:58:23;;;;;;;;;;;;;;;20.79;24.88;99780.28;5055168;28;1647;-77
2022/12/19 02:00:49;;;;;;;;;;;;;;;21.13;24.62;99777.19;5022355;28;1985;-77
2022/12/19 02:03:25;;;;;;;;;;;;;;;21.21;24.42;99778.03;5038175;28;951;-77
2022/12/19 02:05:52;;;;;;;;;;;;;;;21.08;24.50;99778.38;5021997;28;931;-77
2022/12/19 02:08:17;;;;;;;;;;;;;;;20.97;24.84;99793.69;5022025;28;1341;-77
2022/12/19 02:10:43;;;;;;;;;;;;;;;20.93;24.92;99798.53;5055155;28;1123;-77
2022/12/19 02:13:09;;;;;;;;;;;;;;;21.02;24.79;99801.81;5021245;28;1384;-77
2022/12/19 02:15:42;;;;;;;;;;;;;;;21.02;24.52;99790.47;5021282;28;1259;-77
2022/12/19 02:18:20;;;;;;;;;;;;;;;21.23;24.48;99782.06;5037903;28;944;-77
2022/12/19 02:20:51;;;;;;;;;;;;;;;21.03;24.37;99792.09;5038263;28;1914;-77
2022/12/19 02:23:22;;;;;;;;;;;;;;;20.91;24.75;99800.94;5021430;28;1364;-77
2022/12/19 02:25:53;;;;;;;;;;;;;;;20.80;24.68;99801.72;5038291;28;1158;-77
2022/12/19 02:28:35;;;;;;;;;;;;;;;21.07;24.44;99804.25;5024474;28;1204;-77
2022/12/19 02:31:07;;;;;;;;;;;;;;;21.32;24.07;99799.53;5097200;28;927;-77
2022/12/19 02:33:42;;;;;;;;;;;;;;;21.19;24.39;99803.91;5078556;28;1138;-77
2022/12/19 02:36:14;;;;;;;;;;;;;;;20.93;24.48;99815.50;5095935;28;1270;-77
2022/12/19 02:38:51;;;;;;;;;;;;;;;20.98;24.74;99809.47;5096673;28;866;-77
2022/12/19 02:41:25;;;;;;;;;;;;;;;21.06;24.46;99805.47;5078811;28;1906;-77
2022/12/19 02:43:51;;;;;;;;;;;;;;;21.22;24.21;99822.91;5095186;28;1546;-77
2022/12/19 02:46:16;;;;;;;;;;;;;;;21.33;24.09;99818.13;5096352;28;1269;-77
2022/12/19 02:48:42;;;;;;;;;;;;;;;21.08;24.37;99834.97;5078797;28;1219;-77
2022/12/19 02:51:07;;;;;;;;;;;;;;;21.08;24.37;99834.16;5074217;28;1019;-77
2022/12/19 02:53:36;;;;;;;;;;;;;;;21.28;24.29;99843.97;5041257;28;1116;-77
2022/12/19 02:56:07;;;;;;;;;;;;;;;21.44;24.10;99832.31;5040728;28;1042;-77
2022/12/19 02:58:33;;;;;;;;;;;;;;;21.37;23.89;99846.47;5057341;28;1146;-77
2022/12/19 03:01:07;;;;;;;;;;;;;;;20.99;24.65;99847.91;5057503;28;1909;-77
2022/12/19 03:03:32;;;;;;;;;;;;;;;21.02;24.41;99852.75;5057220;28;969;-77
2022/12/19 03:05:58;;;;;;;;;;;;;;;20.84;24.90;99868.81;5073944;28;1030;-77
2022/12/19 03:08:24;;;;;;;;;;;;;;;21.21;24.55;99866.59;5057336;28;1210;-77
2022/12/19 03:10:54;;;;;;;;;;;;;;;21.44;24.02;99857.00;5057809;28;1114;-77
2022/12/19 03:13:26;;;;;;;;;;;;;;;21.25;24.00;99856.09;5056622;28;1051;-77
2022/12/19 03:15:51;;;;;;;;;;;;;;;20.90;24.57;99861.59;5074474;28;932;-77
2022/12/19 03:18:17;;;;;;;;;;;;;;;20.60;24.93;99859.78;5040406;28;1133;-77
2022/12/19 03:20:53;;;;;;;;;;;;;;;21.14;24.67;99872.22;5073999;28;1906;-77
2022/12/19 03:23:18;;;;;;;;;;;;;;;21.46;23.90;99869.56;5094602;28;869;-77
2022/12/19 03:25:45;;;;;;;;;;;;;;;21.41;23.94;99880.47;5095344;28;945;-77
2022/12/19 03:28:12;;;;;;;;;;;;;;;20.95;24.39;99881.81;5094540;28;1050;-77
2022/12/19 03:30:38;;;;;;;;;;;;;;;20.83;24.84;99878.50;5095167;28;875;-77
2022/12/19 03:33:04;;;;;;;;;;;;;;;20.77;24.97;99887.34;5096012;28;906;-77
2022/12/19 03:35:29;;;;;;;;;;;;;;;21.07;24.57;99894.81;5094986;28;937;-77
2022/12/19 03:37:59;;;;;;;;;;;;;;;21.14;24.55;99900.53;5095156;28;954;-77
2022/12/19 03:40:25;;;;;;;;;;;;;;;20.98;24.42;99897.19;5096248;28;1910;-77
2022/12/19 03:43:10;;;;;;;;;;;;;;;20.61;24.95;99895.31;5095150;28;945;-77
2022/12/19 03:45:35;;;;;;;;;;;;;;;20.72;25.31;99896.22;5055054;28;1111;-77
2022/12/19 03:48:02;;;;;;;;;;;;;;;20.99;24.85;99904.50;5057568;28;914;-77
2022/12/19 03:50:29;;;;;;;;;;;;;;;21.31;24.12;99899.84;5040950;28;848;-77
2022/12/19 03:52:58;;;;;;;;;;;;;;;20.99;24.46;99901.66;5041209;28;1025;-77
2022/12/19 03:55:29;;;;;;;;;;;;;;;20.71;25.09;99894.59;5040814;28;923;-77
2022/12/19 03:58:00;;;;;;;;;;;;;;;20.84;24.81;99908.44;5040810;28;1025;-77
2022/12/19 04:00:26;;;;;;;;;;;;;;;21.05;24.42;99902.91;5057510;28;1906;-77
2022/12/19 04:02:51;;;;;;;;;;;;;;;21.30;24.15;99903.88;5057673;28;926;-77
2022/12/19 04:05:18;;;;;;;;;;;;;;;21.09;24.39;99906.59;5041000;28;946;-77
2022/12/19 04:07:44;;;;;;;;;;;;;;;20.94;24.38;99899.22;5040680;28;1020;-76
2022/12/19 04:10:16;;;;;;;;;;;;;;;20.81;24.59;99902.34;5023969;28;1037;-77
2022/12/19 04:12:44;;;;;;;;;;;;;;;21.19;24.47;99907.81;5040978;28;1246;-76
2022/12/19 04:15:13;;;;;;;;;;;;;;;21.19;24.23;99914.31;5042402;28;1065;-77
2022/12/19 04:17:50;;;;;;;;;;;;;;;21.16;24.15;99917.94;5098482;28;1037;-77
2022/12/19 04:20:18;;;;;;;;;;;;;;;21.36;24.11;99917.66;5056564;28;1991;-76
2022/12/19 04:23:02;;;;;;;;;;;;;;;21.13;24.15;99915.88;5040176;28;1019;-77
2022/12/19 04:25:28;;;;;;;;;;;;;;;20.84;24.47;99914.09;5056699;28;865;-78
2022/12/19 04:27:58;;;;;;;;;;;;;;;20.91;24.48;99926.25;5056969;28;943;-78
2022/12/19 04:30:24;;;;;;;;;;;;;;;21.08;24.23;99930.41;5056911;28;962;-78
2022/12/19 04:32:49;;;;;;;;;;;;;;;21.28;23.86;99926.06;5056720;28;994;-78
2022/12/19 04:35:15;;;;;;;;;;;;;;;21.06;24.33;99921.50;5040696;28;1029;-78
2022/12/19 04:37:40;;;;;;;;;;;;;;;20.92;24.24;99944.06;5057162;28;841;-78
2022/12/19 04:40:07;;;;;;;;;;;;;;;20.80;24.48;99942.34;5056371;28;1909;-78
2022/12/19 04:42:32;;;;;;;;;;;;;;;21.19;24.03;99936.97;5040332;28;997;-78
2022/12/19 04:44:58;;;;;;;;;;;;;;;21.26;24.12;99945.50;5056474;28;1017;-78
2022/12/19 04:47:23;;;;;;;;;;;;;;;21.35;24.03;99941.50;5057197;28;938;-78
2022/12/19 04:49:49;;;;;;;;;;;;;;;21.24;24.20;99945.09;5056229;28;931;-78
2022/12/19 04:52:14;;;;;;;;;;;;;;;21.08;24.06;99948.19;5095277;28;901;-78
2022/12/19 04:54:39;;;;;;;;;;;;;;;20.91;24.45;99948.09;5098812;28;1484;-78
2022/12/19 04:57:05;;;;;;;;;;;;;;;21.27;23.91;99955.59;5098332;28;859;-78
2022/12/19 04:59:30;;;;;;;;;;;;;;;21.37;23.76;99953.25;5079851;28;1078;-78
2022/12/19 05:01:56;;;;;;;;;;;;;;;20.90;24.16;99963.44;5098810;28;1906;-78
2022/12/19 05:04:21;;;;;;;;;;;;;;;20.74;24.68;99961.72;5098593;28;882;-78
2022/12/19 05:06:47;;;;;;;;;;;;;;;20.83;24.31;99966.22;5098742;28;890;-78
2022/12/19 05:09:12;;;;;;;;;;;;;;;21.05;24.26;99965.19;5098496;28;951;-78
2022/12/19 05:11:38;;;;;;;;;;;;;;;21.16;23.75;99966.06;5097856;28;1074;-78
2022/12/19 05:14:03;;;;;;;;;;;;;;;21.21;23.67;99967.69;5098924;28;906;-78
2022/12/19 05:16:29;;;;;;;;;;;;;;;21.03;23.78;99967.56;5098616;28;864;-78
2022/12/19 05:18:54;;;;;;;;;;;;;;;20.87;24.36;99975.53;5098586;28;1111;-78
2022/12/19 05:21:20;;;;;;;;;;;;;;;21.17;23.85;99975.34;5098512;28;1906;-78
2022/12/19 05:23:45;;;;;;;;;;;;;;;21.19;23.67;99976.59;5098367;28;935;-78
2022/12/19 05:26:11;;;;;;;;;;;;;;;21.19;23.57;99987.09;5098524;28;842;-78
2022/12/19 05:28:37;;;;;;;;;;;;;;;21.13;23.57;99989.47;5097554;28;923;-78
2022/12/19 05:31:06;;;;;;;;;;;;;;;20.95;23.79;99985.72;5098758;28;909;-78
2022/12/19 05:33:31;;;;;;;;;;;;;;;20.63;24.12;99989.09;5097348;28;1049;-78
2022/12/19 05:35:57;;;;;;;;;;;;;;;20.79;24.20;99986.81;5098411;28;935;-78
2022/12/19 05:38:22;;;;;;;;;;;;;;;21.20;23.52;99995.22;5097625;28;1146;-78
2022/12/19 05:40:48;;;;;;;;;;;;;;;21.46;23.05;99997.00;5098170;28;1972;-78
2022/12/19 05:43:13;;;;;;;;;;;;;;;20.94;23.76;99998.25;5097802;28;955;-78
2022/12/19 05:45:38;;;;;;;;;;;;;;;20.79;23.78;100003.78;5098101;28;882;-78
2022/12/19 05:48:04;;;;;;;;;;;;;;;21.01;23.63;100003.97;5098341;28;925;-77
2022/12/19 05:50:29;;;;;;;;;;;;;;;21.37;23.20;99998.56;5096711;28;1654;-78
2022/12/19 05:53:07;;;;;;;;;;;;;;;21.29;23.37;100009.00;5096257;28;1121;-78
2022/12/19 05:55:33;;;;;;;;;;;;;;;21.32;23.36;100009.06;5098070;28;847;-78
2022/12/19 05:57:58;;;;;;;;;;;;;;;21.07;23.58;100013.69;5097555;28;917;-78
2022/12/19 06:00:24;;;;;;;;;;;;;;;20.88;23.68;100023.28;5097457;28;1906;-77
2022/12/19 06:02:49;;;;;;;;;;;;;;;20.89;23.75;100018.44;5097413;28;862;-78
2022/12/19 06:05:15;;;;;;;;;;;;;;;20.96;23.59;100024.94;5098045;28;965;-78
2022/12/19 06:07:41;;;;;;;;;;;;;;;21.18;23.47;100020.25;5097881;28;1096;-78
2022/12/19 06:10:06;;;;;;;;;;;;;;;21.13;23.44;100029.09;5096512;28;960;-78
2022/12/19 06:12:32;;;;;;;;;;;;;;;21.58;22.70;100035.50;5097549;28;1204;-78
2022/12/19 06:14:57;;;;;;;;;;;;;;;21.15;22.93;100032.38;5078300;28;969;-78
2022/12/19 06:17:23;;;;;;;;;;;;;;;20.94;23.18;100040.69;5097592;28;1053;-78
2022/12/19 06:19:48;;;;;;;;;;;;;;;20.74;23.81;100040.94;5097354;28;1905;-78
2022/12/19 06:22:14;;;;;;;;;;;;;;;20.51;24.01;100043.09;5097207;28;953;-78
2022/12/19 06:24:39;;;;;;;;;;;;;;;21.01;23.19;100055.72;5097083;28;1120;-78
2022/12/19 06:27:05;;;;;;;;;;;;;;;21.46;22.65;100062.16;5097442;28;1025;-78
2022/12/19 06:29:30;;;;;;;;;;;;;;;21.10;22.94;100057.41;5095982;28;1072;-78
2022/12/19 06:31:55;;;;;;;;;;;;;;;20.90;23.23;100059.66;5097190;28;971;-78
2022/12/19 06:34:21;;;;;;;;;;;;;;;20.91;23.30;100061.28;5097142;28;862;-78
2022/12/19 06:36:46;;;;;;;;;;;;;;;20.99;23.01;100071.47;5097178;28;886;-78
2022/12/19 06:39:12;;;;;;;;;;;;;;;21.14;22.87;100072.38;5097346;28;896;-78
2022/12/19 06:44:22;;;;;;;;;;;;;;;20.92;23.35;100077.06;5108247;28;1313;-78
2022/12/19 06:46:47;;;;;;;;;;;;;;;20.85;23.42;100074.97;5104338;28;1532;-77
2022/12/19 06:49:12;;;;;;;;;;;;;;;20.99;23.28;100071.47;5097022;28;898;-78
2022/12/19 06:51:38;;;;;;;;;;;;;;;21.27;22.82;100087.88;5097249;28;943;-77
2022/12/19 06:54:03;;;;;;;;;;;;;;;21.37;22.66;100100.50;5103840;28;1215;-77
2022/12/19 06:56:32;;;;;;;;;;;;;;;21.10;23.02;100092.19;5111140;28;1467;-78
2022/12/19 06:58:59;;;;;;;;;;;;;;;20.94;23.22;100092.44;5108180;28;1515;-78
2022/12/19 07:01:27;;;;;;;;;;;;;;;20.90;23.35;100093.63;5070347;28;1973;-78
2022/12/19 07:03:53;;;;;;;;;;;;;;;21.10;22.92;100100.69;5110518;28;1574;-78
2022/12/19 07:06:18;;;;;;;;;;;;;;;21.33;22.36;100101.28;5101874;28;1449;-78
2022/12/19 07:08:44;;;;;;;;;;;;;;;21.25;22.53;100108.09;5108199;28;1560;-78
2022/12/19 07:11:09;;;;;;;;;;;;;;;20.80;23.09;100104.44;5108582;28;1543;-78
2022/12/19 07:13:34;;;;;;;;;;;;;;;20.72;23.18;100105.56;5108961;28;1305;-78
2022/12/19 07:16:00;;;;;;;;;;;;;;;21.09;22.75;100096.22;5105855;28;1498;-78
2022/12/19 07:18:26;;;;;;;;;;;;;;;21.28;22.50;100115.78;5106798;28;1323;-78
2022/12/19 07:20:51;;;;;;;;;;;;;;;21.14;22.39;100115.69;5105227;28;1906;-78
2022/12/19 07:23:17;;;;;;;;;;;;;;;20.79;23.00;100122.63;5113725;28;1401;-78
2022/12/19 07:25:42;;;;;;;;;;;;;;;20.78;23.39;100121.00;5105622;28;1242;-78
2022/12/19 07:28:08;;;;;;;;;;;;;;;20.87;23.24;100128.34;5094902;28;1065;-78
2022/12/19 07:30:33;;;;;;;;;;;;;;;20.77;23.25;100136.31;5077542;28;1075;-78
2022/12/19 07:32:59;;;;;;;;;;;;;;;20.72;23.41;100138.69;5094800;28;926;-78
2022/12/19 07:35:24;;;;;;;;;;;;;;;20.95;23.17;100139.34;5096178;28;947;-78
2022/12/19 07:37:50;;;;;;;;;;;;;;;21.38;22.47;100133.28;5096526;28;874;-78
2022/12/19 07:40:16;;;;;;;;;;;;;;;21.06;22.49;100140.25;5096170;28;1905;-78
2022/12/19 07:42:42;;;;;;;;;;;;;;;20.86;22.88;100149.34;5095908;28;926;-78
2022/12/19 07:45:07;;;;;;;;;;;;;;;20.67;23.24;100148.34;5099235;28;1392;-78
2022/12/19 07:47:33;;;;;;;;;;;;;;;20.98;22.99;100158.38;5115910;28;1414;-81
2022/12/19 07:49:58;;;;;;;;;;;;;;;21.27;22.76;100158.66;5116109;28;952;-80
2022/12/19 07:52:23;;;;;;;;;;;;;;;21.16;22.67;100158.56;5116527;28;943;-82
2022/12/19 07:54:49;;;;;;;;;;;;;;;21.02;22.75;100164.06;5112945;28;1554;-80
2022/12/19 07:57:14;;;;;;;;;;;;;;;21.06;22.76;100167.75;5088957;28;1630;-79
2022/12/19 07:59:40;;;;;;;;;;;;;;;20.90;23.27;100175.69;5115304;28;1151;-78
2022/12/19 08:02:05;;;;;;;;;;;;;;;20.82;23.16;100183.25;5099638;28;1910;-77
2022/12/19 08:04:31;;;;;;;;;;;;;;;21.02;22.91;100192.38;5109508;28;1210;-77
2022/12/19 08:06:56;;;;;;;;;;;;;;;20.88;23.07;100181.75;5107083;28;1669;-82
2022/12/19 08:09:22;;;;;;;;;;;;;;;20.74;23.59;100182.38;5103636;28;1946;-77
2022/12/19 08:11:47;;;;;;;;;;;;;;;20.63;23.69;100189.13;5109309;28;1621;-77
2022/12/19 08:14:13;;;;;;;;;;;;;;;21.24;22.83;100188.56;5106800;28;1519;-69
2022/12/19 08:16:38;;;;;;;;;;;;;;;21.29;22.51;100199.50;5104648;28;1266;-70
2022/12/19 08:19:04;;;;;;;;;;;;;;;21.30;22.15;100198.38;5104324;28;1495;-70
2022/12/19 08:21:29;;;;;;;;;;;;;;;21.35;22.09;100204.84;5103607;28;1906;-70
2022/12/19 08:23:55;;;;;;;;;;;;;;;21.27;21.91;100199.09;5105237;28;1542;-70
2022/12/19 08:26:23;;;;;;;;;;;;;;;21.70;22.09;100193.81;5104930;28;1462;-69
2022/12/19 08:28:52;;;;;;;;;;;;;;;21.16;22.26;100195.34;5106882;28;1783;-77
2022/12/19 08:31:18;;;;;;;;;;;;;;;21.18;22.08;100195.78;5104501;28;1575;-76
2022/12/19 08:33:43;;;;;;;;;;;;;;;21.11;22.41;100190.06;5113944;28;1627;-76
2022/12/19 08:36:09;;;;;;;;;;;;;;;21.01;22.52;100190.75;5114713;28;1669;-76
2022/12/19 08:38:35;;;;;;;;;;;;;;;20.81;23.06;100190.94;5118365;28;1569;-76
2022/12/19 08:41:01;;;;;;;;;;;;;;;20.87;22.98;100193.41;5096915;28;1901;-75
2022/12/19 08:43:26;;;;;;;;;;;;;;;20.96;22.65;100191.91;5096856;28;1013;-76
2022/12/19 08:45:52;;;;;;;;;;;;;;;20.90;22.66;100201.16;5080025;28;906;-75
2022/12/19 08:48:17;;;;;;;;;;;;;;;20.70;23.39;100192.84;5098286;28;971;-76
2022/12/19 08:50:49;;;;;;;;;;;;;;;20.89;23.20;100193.88;5096872;28;965;-75
2022/12/19 08:53:14;;;;;;;;;;;;;;;21.03;22.61;100185.50;5098134;28;921;-75
2022/12/19 08:55:40;;;;;;;;;;;;;;;21.18;22.39;100181.63;5098174;28;987;-75
2022/12/19 08:58:05;;;;;;;;;;;;;;;21.18;22.48;100190.09;5055336;28;1069;-73
2022/12/19 09:00:31;;;;;;;;;;;;;;;20.87;22.86;100179.28;5021688;28;1930;-74
2022/12/19 09:02:56;;;;;;;;;;;;;;;21.05;22.82;100180.28;5055348;28;1031;-74
2022/12/19 09:05:21;;;;;;;;;;;;;;;20.72;23.08;100181.13;5055276;28;1002;-73
2022/12/19 09:07:47;;;;;;;;;;;;;;;21.06;22.70;100179.09;5038412;28;957;-74
2022/12/19 09:10:13;;;;;;;;;;;;;;;21.21;22.70;100172.34;5067307;28;2026;-75
2022/12/19 09:12:38;;;;;;;;;;;;;;;21.27;22.38;100173.63;5074909;28;1214;-74
2022/12/19 09:15:04;;;;;;;;;;;;;;;21.11;22.68;100167.41;5058519;28;936;-75
2022/12/19 09:17:29;;;;;;;;;;;;;;;20.98;22.71;100174.53;5058323;28;974;-75
2022/12/19 09:19:55;;;;;;;;;;;;;;;21.12;22.75;100168.22;5075274;28;1946;-75
2022/12/19 09:22:20;;;;;;;;;;;;;;;21.26;22.67;100172.00;5075309;28;1136;-75
2022/12/19 09:24:45;;;;;;;;;;;;;;;21.19;22.38;100159.78;5071605;28;1894;-74
2022/12/19 09:27:11;;;;;;;;;;;;;;;21.03;23.03;100162.88;5049097;28;1875;-75
2022/12/19 09:29:36;;;;;;;;;;;;;;;20.89;23.26;100154.25;5096744;28;1509;-75
2022/12/19 09:32:02;;;;;;;;;;;;;;;21.08;22.82;100152.00;5106836;28;1455;-75
2022/12/19 09:34:27;;;;;;;;;;;;;;;21.24;22.76;100151.75;5105888;28;1503;-75
2022/12/19 09:36:53;;;;;;;;;;;;;;;21.22;22.75;100151.31;5107747;28;1527;-75
2022/12/19 09:39:18;;;;;;;;;;;;;;;21.00;22.91;100155.97;5088872;28;1421;-74
2022/12/19 09:41:47;;;;;;;;;;;;;;;21.01;22.98;100160.44;5102683;28;1909;-75
2022/12/19 09:44:12;;;;;;;;;;;;;;;20.88;23.08;100158.25;5104416;28;1468;-75
2022/12/19 09:46:51;;;;;;;;;;;;;;;21.37;22.56;100148.66;5105350;28;1374;-75
2022/12/19 09:49:20;;;;;;;;;;;;;;;21.42;22.21;100148.28;5106836;28;1475;-75
2022/12/19 09:51:52;;;;;;;;;;;;;;;20.89;23.07;100143.75;5105910;28;1444;-75
2022/12/19 09:54:47;;;;;;;;;;;;;;;20.84;23.15;100148.94;5105617;28;1566;-75
2022/12/19 09:57:33;;;;;;;;;;;;;;;20.93;23.07;100138.09;5052943;28;1487;-76
2022/12/19 09:59:59;;;;;;;;;;;;;;;21.49;22.29;100131.34;5036596;28;1973;-74
2022/12/19 10:02:27;;;;;;;;;;;;;;;21.52;22.15;100130.56;5036841;28;1434;-75
2022/12/19 10:05:12;;;;;;;;;;;;;;;21.11;22.66;100116.44;5037270;28;1395;-75
2022/12/19 10:07:37;;;;;;;;;;;;;;;20.91;22.94;100126.38;5053501;28;1595;-74
2022/12/19 10:10:03;;;;;;;;;;;;;;;21.20;22.59;100111.28;5053949;28;1571;-75
2022/12/19 10:12:33;;;;;;;;;;;;;;;21.24;22.49;100109.31;5036955;28;1365;-74
2022/12/19 10:15:07;;;;;;;;;;;;;;;21.53;22.21;100103.88;5034108;28;1556;-75
2022/12/19 10:17:35;;;;;;;;;;;;;;;21.07;22.81;100102.25;5035915;28;2032;-74
2022/12/19 10:20:01;;;;;;;;;;;;;;;20.69;23.35;100100.69;5053506;28;1974;-75
2022/12/19 10:22:28;;;;;;;;;;;;;;;20.88;22.94;100096.00;5053216;28;1581;-75
2022/12/19 10:25:09;;;;;;;;;;;;;;;21.36;22.22;100104.56;5037002;28;1585;-75
2022/12/19 10:27:37;;;;;;;;;;;;;;;21.30;22.50;100095.63;5053255;28;1495;-75
2022/12/19 10:30:11;;;;;;;;;;;;;;;20.97;22.91;100093.66;5053215;28;1525;-74
2022/12/19 10:32:41;;;;;;;;;;;;;;;20.73;23.25;100089.41;5057374;28;1541;-75
2022/12/19 10:35:13;;;;;;;;;;;;;;;20.72;22.94;100088.56;5095150;28;957;-74
2022/12/19 10:37:44;;;;;;;;;;;;;;;21.43;22.13;100094.09;5095094;28;893;-75
2022/12/19 10:40:13;;;;;;;;;;;;;;;21.44;22.14;100094.88;5077885;28;1905;-75
2022/12/19 10:42:45;;;;;;;;;;;;;;;21.00;22.70;100085.22;5095656;28;952;-74
2022/12/19 10:45:14;;;;;;;;;;;;;;;20.70;23.06;100085.34;5096432;28;976;-74
2022/12/19 10:47:40;;;;;;;;;;;;;;;20.99;22.77;100085.63;5094902;28;943;-75
2022/12/19 10:50:10;;;;;;;;;;;;;;;21.32;22.24;100087.53;5095880;28;981;-74
2022/12/19 10:52:44;;;;;;;;;;;;;;;21.38;22.18;100079.47;5105990;28;1475;-74
2022/12/19 10:55:29;;;;;;;;;;;;;;;21.27;22.11;100083.00;5113973;28;1034;-74
2022/12/19 10:57:58;;;;;;;;;;;;;;;20.95;22.63;100090.44;5116583;28;956;-74
2022/12/19 11:00:24;;;;;;;;;;;;;;;20.93;23.06;100087.16;5098015;28;1906;-74
2022/12/19 11:02:53;;;;;;;;;;;;;;;21.29;22.47;100086.25;5114713;28;941;-74
2022/12/19 11:05:24;;;;;;;;;;;;;;;21.79;21.56;100078.13;5098475;28;972;-74
2022/12/19 11:08:00;;;;;;;;;;;;;;;21.24;22.44;100075.31;5116249;28;953;-74
2022/12/19 11:10:45;;;;;;;;;;;;;;;20.98;22.51;100078.31;5080449;28;1019;-74
2022/12/19 11:13:23;;;;;;;;;;;;;;;20.96;22.60;100063.75;5097406;28;1161;-74
2022/12/19 11:15:50;;;;;;;;;;;;;;;21.32;22.09;100079.84;5116048;28;886;-74
2022/12/19 11:18:15;;;;;;;;;;;;;;;21.38;22.22;100085.16;5114809;28;974;-74
2022/12/19 11:20:51;;;;;;;;;;;;;;;21.25;22.12;100079.78;5114881;28;1925;-74
2022/12/19 11:23:16;;;;;;;;;;;;;;;21.20;22.21;100079.31;5114754;28;937;-74
2022/12/19 11:25:42;;;;;;;;;;;;;;;21.16;22.34;100084.13;5114584;28;988;-74
2022/12/19 11:28:30;;;;;;;;;;;;;;;21.18;22.65;100076.88;5114260;28;936;-74
2022/12/19 11:30:57;;;;;;;;;;;;;;;21.44;21.90;100077.91;5032916;28;1045;-74
2022/12/19 11:33:22;;;;;;;;;;;;;;;21.61;21.86;100074.38;5016511;28;1134;-75
2022/12/19 11:35:49;;;;;;;;;;;;;;;21.14;22.33;100070.38;4983376;28;995;-74
2022/12/19 11:38:16;;;;;;;;;;;;;;;21.22;22.20;100066.38;5016100;28;892;-74
2022/12/19 11:40:46;;;;;;;;;;;;;;;21.19;22.34;100067.19;5032860;28;1971;-74
2022/12/19 11:43:16;;;;;;;;;;;;;;;21.23;22.09;100072.88;5016182;28;980;-75
2022/12/19 11:45:50;;;;;;;;;;;;;;;21.42;21.85;100074.66;5016463;28;1024;-74
2022/12/19 11:48:19;;;;;;;;;;;;;;;21.43;22.10;100070.63;5016058;28;982;-74
2022/12/19 11:50:50;;;;;;;;;;;;;;;21.31;21.84;100064.06;5016430;28;1013;-74
2022/12/19 11:53:29;;;;;;;;;;;;;;;20.89;22.40;100063.69;5032275;28;1082;-75
2022/12/19 11:55:54;;;;;;;;;;;;;;;20.69;22.76;100055.44;5016266;28;1160;-75
2022/12/19 11:58:20;;;;;;;;;;;;;;;21.12;22.40;100061.47;5032675;28;1070;-74
2022/12/19 12:00:50;;;;;;;;;;;;;;;21.10;22.19;100055.38;5015733;28;1934;-74
2022/12/19 12:03:29;;;;;;;;;;;;;;;21.57;21.79;100053.72;4999838;28;943;-74
2022/12/19 12:05:57;;;;;;;;;;;;;;;20.98;22.20;100064.16;5016333;28;955;-74
2022/12/19 12:08:25;;;;;;;;;;;;;;;20.86;22.37;100064.47;5092892;28;1104;-74
2022/12/19 12:10:54;;;;;;;;;;;;;;;20.86;22.55;100058.81;5119093;28;1399;-74
2022/12/19 12:13:29;;;;;;;;;;;;;;;21.16;22.14;100073.63;5119587;28;1110;-74
2022/12/19 12:15:59;;;;;;;;;;;;;;;21.45;21.83;100056.84;5119831;28;917;-74
2022/12/19 12:18:30;;;;;;;;;;;;;;;21.38;21.75;100059.66;5119286;28;947;-74
2022/12/19 12:20:56;;;;;;;;;;;;;;;20.92;22.29;100068.56;5119151;28;1980;-74
2022/12/19 12:23:27;;;;;;;;;;;;;;;20.67;22.72;100057.81;5119737;28;932;-75
2022/12/19 12:26:11;;;;;;;;;;;;;;;21.21;22.19;100064.78;5119228;28;974;-74
2022/12/19 12:28:49;;;;;;;;;;;;;;;21.45;21.93;100065.34;5118847;28;945;-75
2022/12/19 12:31:30;;;;;;;;;;;;;;;21.53;21.62;100075.53;5119405;28;959;-75
2022/12/19 12:33:55;;;;;;;;;;;;;;;20.76;22.54;100066.00;5119180;28;973;-74
2022/12/19 12:36:46;;;;;;;;;;;;;;;20.58;22.85;100068.66;5119305;28;980;-74
2022/12/19 12:39:19;;;;;;;;;;;;;;;21.27;21.95;100080.19;5117356;28;989;-74
2022/12/19 12:42:03;;;;;;;;;;;;;;;21.45;21.93;100085.19;5118998;28;1905;-75
2022/12/19 12:44:36;;;;;;;;;;;;;;;21.28;21.91;100070.47;5117819;28;961;-74
2022/12/19 12:47:19;;;;;;;;;;;;;;;21.13;22.14;100073.59;5117770;28;967;-76
2022/12/19 12:49:46;;;;;;;;;;;;;;;21.08;22.20;100074.75;5117419;28;986;-76
2022/12/19 12:52:19;;;;;;;;;;;;;;;21.43;21.83;100076.28;5117402;28;1101;-76
2022/12/19 12:54:44;;;;;;;;;;;;;;;21.24;22.10;100075.31;5118536;28;989;-75
2022/12/19 12:57:25;;;;;;;;;;;;;;;21.13;21.85;100073.59;5117322;28;1006;-76
2022/12/19 13:00:11;;;;;;;;;;;;;;;21.10;22.06;100068.72;5117185;28;954;-75
2022/12/19 13:02:36;;;;;;;;;;;;;;;21.05;22.05;100072.72;5117955;28;1082;-75
2022/12/19 13:05:02;;;;;;;;;;;;;;;21.21;21.92;100073.25;5117160;28;954;-76